Bryant, Mississippi
Current Conditions -  °F | °C
As of 3:55 PM on Friday 28 Nov 2014 (Local Time) from KGNF Reporting Station
Clear Clear  
Wind Chill: 55°   Ceiling: Unl
Heat Index: 55°   Visibility: 10mi
Dew Point: 27°   Wind: 7mph
Humidity: 33%   Direction: 180°S
Pressure: 30.23"   Gusts: NA
Location:  33.9467°N, 89.6428°W
Report Text: KGNF 282155Z AUTO 18006KT 10SM CLR 13/M03 A3023 RMK AO2
Loading
Personal Weather Stations






























Interactive Weather Map New forecast layout! Learn more

10-Day Weather Forecast

Advertisements
Track Severe Weather on mobile